Time;durP1;ratioP1;P1;durP2;ratioP2;P2;SDS_P1;SDS_P2;PMS_P1;PMS_P2;Temp;Humidity;BMP_temperature;BMP_pressure;BME280_temperature;BME280_humidity;BME280_pressure;Samples;Min_cycle;Max_cycle;Signal;HPM_P1;HPM_P2
2021/12/23 00:02:08;;;;;;;10.98;4.00;;;-3274.90;79.30;;;;;;5026551;28;20055;-68
2021/12/23 00:04:41;;;;;;;8.13;4.28;;;-3275.00;79.30;;;;;;5007814;28;20045;-70
2021/12/23 00:07:09;;;;;;;9.48;5.28;;;-3275.00;79.30;;;;;;4962942;28;20073;-69
2021/12/23 00:10:06;;;;;;;11.20;4.85;;;-3275.00;79.20;;;;;;700825;28;10003224;-69
2021/12/23 00:12:42;;;;;;;9.38;5.43;;;-3275.00;79.30;;;;;;5029293;28;20105;-69
2021/12/23 00:15:17;;;;;;;12.52;5.35;;;-3275.00;79.40;;;;;;5030181;28;20507;-67
2021/12/23 00:18:05;;;;;;;12.65;4.55;;;-3275.00;79.40;;;;;;5031379;28;20049;-69
2021/12/23 00:23:26;;;;;;;12.00;4.63;;;-3275.00;79.40;;;;;;5030253;28;20061;-70
2021/12/23 00:25:57;;;;;;;7.07;3.10;;;-3275.00;79.40;;;;;;5030762;28;20134;-69
2021/12/23 00:28:25;;;;;;;8.57;4.47;;;-3275.00;79.40;;;;;;5030952;28;20491;-69
2021/12/23 00:30:52;;;;;;;9.73;4.13;;;-3275.00;79.40;;;;;;5031108;28;20053;-68
2021/12/23 00:33:21;;;;;;;9.95;4.78;;;-3275.00;79.50;;;;;;5029663;28;20413;-67
2021/12/23 00:35:49;;;;;;;8.05;4.32;;;-3275.00;79.50;;;;;;5030999;28;20045;-69
2021/12/23 00:38:21;;;;;;;8.20;5.07;;;-3275.00;79.60;;;;;;5030641;28;20047;-68
2021/12/23 00:40:49;;;;;;;10.93;4.85;;;-3275.00;79.60;;;;;;5018816;28;20470;-68
2021/12/23 00:43:16;;;;;;;11.65;4.90;;;-3275.00;79.60;;;;;;5030405;28;20048;-68
2021/12/23 00:45:43;;;;;;;10.60;4.80;;;-3275.10;79.60;;;;;;5030405;28;20049;-67
2021/12/23 00:48:10;;;;;;;7.78;3.38;;;-3275.10;79.60;;;;;;5028932;28;20410;-67
2021/12/23 00:50:37;;;;;;;7.20;3.85;;;-3275.10;79.70;;;;;;5029645;28;20041;-69
2021/12/23 00:53:06;;;;;;;11.15;4.50;;;-3275.10;79.80;;;;;;5029301;28;20388;-69
2021/12/23 00:55:34;;;;;;;9.73;5.00;;;-3275.10;79.90;;;;;;5031171;28;20045;-69
2021/12/23 00:58:03;;;;;;;9.10;4.35;;;-3275.10;80.00;;;;;;5029876;28;20128;-68
2021/12/23 01:00:30;;;;;;;8.60;4.57;;;-3275.10;80.00;;;;;;5028582;28;20048;-68
2021/12/23 01:03:00;;;;;;;9.68;4.80;;;-3275.20;80.00;;;;;;5030561;28;20041;-67
2021/12/23 01:05:28;;;;;;;10.77;5.38;;;-3275.20;79.90;;;;;;5030011;28;20041;-68
2021/12/23 01:07:55;;;;;;;7.53;3.83;;;-3275.10;80.00;;;;;;5030132;28;20119;-69
2021/12/23 01:10:24;;;;;;;6.78;3.85;;;-3275.10;80.00;;;;;;5030313;28;20055;-68
2021/12/23 01:12:57;;;;;;;9.07;4.88;;;-3275.20;80.00;;;;;;5028331;28;20399;-70
2021/12/23 01:18:21;;;;;;;11.88;4.75;;;-3275.20;80.00;;;;;;4985757;28;20116;-66
2021/12/23 01:20:53;;;;;;;11.60;6.18;;;-3275.20;80.10;;;;;;5028361;28;20136;-70
2021/12/23 01:23:22;;;;;;;12.50;4.97;;;-3275.20;80.10;;;;;;5028559;28;20044;-69
2021/12/23 01:25:52;;;;;;;11.65;5.97;;;-3275.20;80.10;;;;;;5028726;28;20038;-68
2021/12/23 01:28:20;;;;;;;12.43;4.50;;;-3275.20;80.10;;;;;;5007324;28;20420;-69
2021/12/23 01:30:49;;;;;;;9.25;4.40;;;-3275.20;80.10;;;;;;5029951;28;20409;-68
2021/12/23 01:33:17;;;;;;;14.52;4.50;;;-3275.30;80.20;;;;;;5032070;28;20042;-67
2021/12/23 01:35:45;;;;;;;9.60;4.88;;;-3275.30;80.20;;;;;;5029432;28;20033;-71
2021/12/23 01:38:12;;;;;;;12.50;4.65;;;-3275.30;80.20;;;;;;5031657;28;20461;-67
2021/12/23 01:40:39;;;;;;;11.02;4.95;;;-3275.30;80.20;;;;;;5031273;28;20557;-69
2021/12/23 01:43:06;;;;;;;10.13;4.82;;;-3275.30;80.20;;;;;;5031284;28;20063;-70
2021/12/23 01:45:35;;;;;;;8.50;3.92;;;-3275.30;80.30;;;;;;5032243;28;20048;-69
2021/12/23 01:48:04;;;;;;;9.05;4.38;;;-3275.30;80.30;;;;;;5031278;28;20521;-68
2021/12/23 01:50:39;;;;;;;11.60;4.65;;;-3275.30;80.20;;;;;;5012762;28;20053;-69
2021/12/23 01:53:07;;;;;;;10.52;5.40;;;-3275.30;80.30;;;;;;5031351;28;20045;-69
2021/12/23 01:55:36;;;;;;;10.85;4.20;;;-3275.30;80.20;;;;;;5031560;28;20400;-68
2021/12/23 01:58:05;;;;;;;7.72;4.63;;;-3275.30;80.20;;;;;;5032113;28;20044;-69
2021/12/23 02:00:35;;;;;;;11.02;4.95;;;-3275.30;80.20;;;;;;5031468;28;20045;-69
2021/12/23 02:03:04;;;;;;;14.23;4.68;;;-3275.30;80.20;;;;;;5033517;28;20414;-68
2021/12/23 02:05:31;;;;;;;12.57;5.80;;;-3275.20;80.10;;;;;;5033035;28;20076;-69
2021/12/23 02:07:59;;;;;;;7.43;3.88;;;-3275.20;80.10;;;;;;5032925;28;20060;-68
2021/12/23 02:10:27;;;;;;;6.65;3.22;;;-3275.20;80.20;;;;;;5034124;28;20051;-66
2021/12/23 02:12:55;;;;;;;8.30;4.18;;;-3275.20;80.10;;;;;;5032687;28;20052;-69
2021/12/23 02:15:22;;;;;;;9.18;3.95;;;-3275.20;80.10;;;;;;5033351;28;20045;-69
2021/12/23 02:17:50;;;;;;;9.15;5.25;;;-3275.30;80.00;;;;;;5033101;28;20045;-68
2021/12/23 02:20:20;;;;;;;8.02;4.15;;;-3275.20;80.00;;;;;;5032946;28;20073;-69
2021/12/23 02:22:48;;;;;;;6.70;3.57;;;-3275.30;80.00;;;;;;5033851;28;20052;-68
2021/12/23 02:25:18;;;;;;;9.75;5.03;;;-3275.30;80.10;;;;;;5033520;28;20475;-68
2021/12/23 02:27:47;;;;;;;10.38;4.13;;;-3275.30;80.10;;;;;;5030991;28;20041;-68
2021/12/23 02:30:17;;;;;;;14.32;4.07;;;-3275.30;80.00;;;;;;5032041;28;20041;-69
2021/12/23 02:32:45;;;;;;;6.77;4.20;;;-3275.40;80.00;;;;;;5030832;28;20116;-68
2021/12/23 02:35:16;;;;;;;13.50;5.82;;;-3275.40;79.90;;;;;;5032749;28;20041;-69
2021/12/23 02:37:47;;;;;;;17.35;5.35;;;-3275.40;79.90;;;;;;5033642;28;20038;-68
2021/12/23 02:40:26;;;;;;;10.43;5.28;;;-3275.30;79.80;;;;;;5031370;28;20487;-68
2021/12/23 02:42:53;;;;;;;11.95;5.32;;;-3275.40;79.80;;;;;;5014034;28;20407;-69
2021/12/23 02:45:20;;;;;;;8.75;4.43;;;-3275.40;79.80;;;;;;5032078;28;20049;-67
2021/12/23 02:47:47;;;;;;;12.82;5.35;;;-3275.40;79.60;;;;;;5032746;28;20116;-69
2021/12/23 02:50:16;;;;;;;8.85;4.93;;;-3275.40;79.60;;;;;;5031368;28;20041;-67
2021/12/23 02:52:45;;;;;;;9.15;4.13;;;-3275.40;79.70;;;;;;5032600;28;20045;-67
2021/12/23 02:55:12;;;;;;;10.57;5.53;;;-3275.50;79.70;;;;;;5031876;28;20041;-68
2021/12/23 02:57:39;;;;;;;11.52;5.80;;;-3275.50;79.60;;;;;;5029741;28;20046;-69
2021/12/23 03:00:08;;;;;;;6.22;3.95;;;-3275.40;79.60;;;;;;5029273;28;20044;-70
2021/12/23 03:02:38;;;;;;;7.15;4.60;;;-3275.50;79.50;;;;;;5027269;28;20472;-68
2021/12/23 03:05:05;;;;;;;8.35;5.53;;;-3275.40;79.50;;;;;;5030836;28;20048;-67
2021/12/23 03:07:32;;;;;;;12.60;4.68;;;-3275.40;79.50;;;;;;5029424;28;20037;-70
2021/12/23 03:10:04;;;;;;;9.82;5.10;;;-3275.40;79.50;;;;;;5031313;28;20061;-69
2021/12/23 03:12:31;;;;;;;8.90;4.97;;;-3275.40;79.60;;;;;;5029429;28;20041;-69
2021/12/23 03:14:59;;;;;;;12.65;4.65;;;-3275.40;79.60;;;;;;5030497;28;20042;-68
2021/12/23 03:17:26;;;;;;;11.00;5.30;;;-3275.40;79.70;;;;;;5029152;28;20053;-69
2021/12/23 03:19:53;;;;;;;16.48;5.72;;;-3275.40;79.70;;;;;;5030763;28;20045;-68
2021/12/23 03:22:20;;;;;;;11.38;5.32;;;-3275.40;79.70;;;;;;5029702;28;20128;-69
2021/12/23 03:24:47;;;;;;;7.03;4.28;;;-3275.50;79.70;;;;;;5030162;28;20142;-69
2021/12/23 03:27:16;;;;;;;11.07;5.03;;;-3275.50;79.70;;;;;;5030335;28;20056;-67
2021/12/23 03:29:42;;;;;;;13.75;6.40;;;-3275.50;79.80;;;;;;5030475;28;20050;-70
2021/12/23 03:32:10;;;;;;;11.10;5.40;;;-3275.50;79.80;;;;;;5030328;28;20038;-70
2021/12/23 03:34:37;;;;;;;8.95;4.82;;;-3275.60;79.80;;;;;;5030098;28;20045;-69
2021/12/23 03:37:04;;;;;;;12.77;5.95;;;-3275.60;79.90;;;;;;5031615;28;20064;-71
2021/12/23 03:39:31;;;;;;;10.75;5.30;;;-3275.60;79.90;;;;;;5031819;28;20406;-68
2021/12/23 03:41:58;;;;;;;11.70;6.20;;;-3275.60;80.10;;;;;;5031027;28;20121;-69
2021/12/23 03:44:26;;;;;;;13.93;6.03;;;-3275.60;80.10;;;;;;5031699;28;20045;-68
2021/12/23 03:46:53;;;;;;;9.85;4.70;;;-3275.60;80.20;;;;;;5032314;28;20491;-69
2021/12/23 03:49:20;;;;;;;12.65;5.70;;;-3275.70;80.00;;;;;;5030364;28;20063;-70
2021/12/23 03:51:47;;;;;;;11.52;5.38;;;-3275.60;80.10;;;;;;5031023;28;20092;-69
2021/12/23 03:54:14;;;;;;;11.63;5.38;;;-3275.70;80.00;;;;;;5031971;28;20060;-69
2021/12/23 03:56:41;;;;;;;9.20;5.15;;;-3275.70;80.00;;;;;;5031428;28;20055;-70
2021/12/23 03:59:08;;;;;;;8.98;5.20;;;-3275.70;79.90;;;;;;5031434;28;20095;-70
2021/12/23 04:01:37;;;;;;;13.75;6.22;;;-3275.70;80.10;;;;;;5026659;28;20052;-70
2021/12/23 04:04:04;;;;;;;9.00;5.72;;;-3275.70;80.00;;;;;;5030199;28;20128;-68
2021/12/23 04:06:31;;;;;;;11.48;5.38;;;-3275.70;80.10;;;;;;5030851;28;20041;-67
2021/12/23 04:08:58;;;;;;;17.67;6.38;;;-3275.70;80.00;;;;;;5029964;28;20053;-70
2021/12/23 04:11:25;;;;;;;11.95;5.93;;;-3275.70;80.10;;;;;;5030987;28;20050;-69
2021/12/23 04:13:53;;;;;;;10.30;5.25;;;-3275.80;80.10;;;;;;5031145;28;20095;-70
2021/12/23 04:16:20;;;;;;;11.20;6.00;;;-3275.70;80.10;;;;;;5014095;28;20423;-70
2021/12/23 04:18:50;;;;;;;12.52;5.35;;;-3275.80;80.10;;;;;;5030783;28;20050;-70
2021/12/23 04:21:17;;;;;;;10.50;4.90;;;-3275.80;80.10;;;;;;5031636;28;20744;-69
2021/12/23 04:23:44;;;;;;;13.90;6.78;;;-3275.80;80.00;;;;;;5031122;28;20456;-68
2021/12/23 04:26:12;;;;;;;12.40;6.57;;;-3275.80;80.00;;;;;;5030502;28;20504;-69
2021/12/23 04:28:46;;;;;;;13.05;6.65;;;-3275.80;80.00;;;;;;5031250;28;20136;-72
2021/12/23 04:31:17;;;;;;;15.85;5.32;;;-3275.70;79.90;;;;;;5031407;28;20049;-68
2021/12/23 04:33:46;;;;;;;12.68;5.43;;;-3275.70;80.10;;;;;;5031127;28;20140;-69
2021/12/23 04:36:16;;;;;;;10.40;4.43;;;-3275.70;80.10;;;;;;5029198;28;20116;-69
2021/12/23 04:38:45;;;;;;;17.48;6.63;;;-3275.70;80.10;;;;;;5028560;28;20046;-70
2021/12/23 04:41:13;;;;;;;13.18;6.18;;;-3275.70;80.10;;;;;;5028060;28;20174;-68
2021/12/23 04:43:41;;;;;;;10.48;4.70;;;-3275.60;80.10;;;;;;5029068;28;20049;-69
2021/12/23 04:46:08;;;;;;;11.50;6.18;;;-3275.60;80.20;;;;;;5028168;28;20045;-69
2021/12/23 04:48:36;;;;;;;10.25;4.70;;;-3275.60;80.10;;;;;;5028561;28;20133;-68
2021/12/23 04:51:06;;;;;;;8.50;4.20;;;-3275.60;80.10;;;;;;5029681;28;20060;-69
2021/12/23 04:53:35;;;;;;;9.25;4.85;;;-3275.70;80.30;;;;;;5028296;28;20128;-69
2021/12/23 04:56:02;;;;;;;12.27;5.32;;;-3275.60;80.30;;;;;;5028869;28;20109;-69
2021/12/23 04:58:29;;;;;;;12.15;5.60;;;-3275.60;80.30;;;;;;5028659;28;20048;-69
2021/12/23 05:00:56;;;;;;;8.18;4.93;;;-3275.70;80.30;;;;;;5025513;28;20048;-70
2021/12/23 05:03:25;;;;;;;8.57;4.30;;;-3275.70;80.30;;;;;;5027895;28;20045;-68
2021/12/23 05:05:52;;;;;;;14.07;6.22;;;-3275.80;80.30;;;;;;5027045;28;20037;-71
2021/12/23 05:08:20;;;;;;;15.18;7.38;;;-3275.80;80.40;;;;;;5027557;28;20057;-68
2021/12/23 05:10:49;;;;;;;11.98;5.72;;;-3275.80;80.40;;;;;;5027842;28;20037;-71
2021/12/23 05:13:16;;;;;;;14.10;6.57;;;-3275.80;80.40;;;;;;5027259;28;20060;-70
2021/12/23 05:15:43;;;;;;;11.90;4.80;;;-3275.80;80.40;;;;;;5030040;28;20038;-69
2021/12/23 05:18:10;;;;;;;17.75;6.70;;;-3275.90;80.30;;;;;;5030014;28;20058;-71
2021/12/23 05:20:37;;;;;;;10.82;6.32;;;-3275.90;80.40;;;;;;5009370;28;20064;-68
2021/12/23 05:23:04;;;;;;;16.25;7.30;;;-3275.90;80.40;;;;;;5030049;28;20053;-70
2021/12/23 05:25:31;;;;;;;14.25;5.82;;;-3275.90;80.50;;;;;;5030186;28;20049;-69
2021/12/23 05:28:01;;;;;;;17.90;7.25;;;-3275.90;80.40;;;;;;5027631;28;20048;-68
2021/12/23 05:30:34;;;;;;;14.60;7.03;;;-3275.90;80.40;;;;;;5029265;28;20045;-70
2021/12/23 05:33:01;;;;;;;10.07;5.35;;;-3276.00;80.40;;;;;;5029348;28;20573;-68
2021/12/23 05:35:28;;;;;;;20.98;7.75;;;-3276.00;80.40;;;;;;5029961;28;20049;-69
2021/12/23 05:37:55;;;;;;;14.93;6.18;;;-3276.00;80.40;;;;;;5026916;28;20057;-70
2021/12/23 05:40:24;;;;;;;15.40;8.02;;;-3276.00;80.40;;;;;;5029113;28;20042;-69
2021/12/23 05:42:52;;;;;;;14.90;7.13;;;-3276.00;80.50;;;;;;5029204;28;20491;-69
2021/12/23 05:45:20;;;;;;;10.68;6.25;;;-3276.00;80.60;;;;;;5028749;28;20045;-68
2021/12/23 05:47:49;;;;;;;14.32;6.32;;;-3276.00;80.60;;;;;;5029662;28;20046;-70
2021/12/23 05:50:18;;;;;;;13.20;6.55;;;-3276.00;80.70;;;;;;5030155;28;20127;-70
2021/12/23 05:52:46;;;;;;;15.90;5.55;;;-3276.00;80.70;;;;;;5029630;28;20495;-69
2021/12/23 05:55:15;;;;;;;17.40;7.60;;;-3276.00;80.70;;;;;;5030362;28;20055;-68
2021/12/23 05:57:42;;;;;;;13.63;5.53;;;-3276.00;80.70;;;;;;5029782;28;20128;-69
2021/12/23 06:00:13;;;;;;;12.65;5.45;;;-3276.00;80.70;;;;;;5010217;28;20052;-69
2021/12/23 06:02:42;;;;;;;15.68;6.05;;;-3276.00;80.70;;;;;;5029345;28;20053;-70
2021/12/23 06:05:09;;;;;;;11.30;6.13;;;-3276.00;80.70;;;;;;5029621;28;20050;-68
2021/12/23 06:07:36;;;;;;;14.95;7.10;;;-3276.00;80.60;;;;;;5029186;28;20057;-69
2021/12/23 06:10:04;;;;;;;11.40;6.07;;;-3276.00;80.70;;;;;;5029733;28;20050;-69
2021/12/23 06:12:31;;;;;;;12.13;6.03;;;-3276.00;80.60;;;;;;5028867;28;20056;-68
2021/12/23 06:14:58;;;;;;;11.43;5.75;;;-3276.00;80.70;;;;;;5028582;28;20042;-71
2021/12/23 06:17:25;;;;;;;18.98;6.13;;;-3276.00;80.80;;;;;;5026693;28;20386;-69
2021/12/23 06:19:53;;;;;;;16.55;6.72;;;-3276.00;80.80;;;;;;5030919;28;20407;-68
2021/12/23 06:22:21;;;;;;;14.40;5.70;;;-3276.00;80.60;;;;;;5031002;28;20461;-68
2021/12/23 06:24:48;;;;;;;10.60;4.65;;;-3275.90;80.70;;;;;;5031469;28;20044;-68
2021/12/23 06:27:16;;;;;;;10.23;5.50;;;-3275.90;80.70;;;;;;5030216;28;20057;-68
2021/12/23 06:29:44;;;;;;;17.00;6.97;;;-3275.90;80.70;;;;;;5031739;28;20045;-69
2021/12/23 06:32:11;;;;;;;16.38;7.07;;;-3275.90;80.80;;;;;;5030613;28;20038;-70
2021/12/23 06:34:38;;;;;;;12.25;5.68;;;-3275.90;80.80;;;;;;5027024;28;20068;-70
2021/12/23 06:37:06;;;;;;;16.40;6.25;;;-3275.80;80.90;;;;;;5030569;28;20072;-67
2021/12/23 06:39:35;;;;;;;10.88;6.65;;;-3275.80;80.90;;;;;;5032005;28;20052;-69
2021/12/23 06:42:02;;;;;;;7.70;5.85;;;-3275.80;80.70;;;;;;5029605;28;20038;-69
2021/12/23 06:44:29;;;;;;;14.95;6.93;;;-3275.70;80.70;;;;;;5030741;28;20449;-70
2021/12/23 06:46:56;;;;;;;14.93;6.00;;;-3275.70;80.60;;;;;;5030760;28;20048;-71
2021/12/23 06:49:23;;;;;;;15.55;6.75;;;-3275.70;80.60;;;;;;5030024;28;20072;-69
2021/12/23 06:51:50;;;;;;;12.48;6.70;;;-3275.70;80.60;;;;;;5012389;28;20487;-70
2021/12/23 06:54:19;;;;;;;11.10;5.13;;;-3275.70;80.60;;;;;;5031246;28;20503;-68
2021/12/23 06:56:47;;;;;;;11.70;5.90;;;-3275.70;80.60;;;;;;5032164;28;20499;-70
2021/12/23 06:59:15;;;;;;;11.02;6.60;;;-3275.70;80.70;;;;;;5031011;28;20443;-68
2021/12/23 07:01:42;;;;;;;11.77;4.93;;;-3275.70;80.70;;;;;;5028436;28;20049;-69
2021/12/23 07:04:14;;;;;;;14.88;6.68;;;-3275.70;80.70;;;;;;5031796;28;20513;-68
2021/12/23 07:06:47;;;;;;;14.82;4.78;;;-3275.70;80.90;;;;;;5032442;28;20072;-68
2021/12/23 07:09:15;;;;;;;12.50;5.75;;;-3275.70;80.80;;;;;;5031665;28;20124;-70
2021/12/23 07:11:44;;;;;;;16.27;5.93;;;-3275.70;80.80;;;;;;5032362;28;20041;-68
2021/12/23 07:14:11;;;;;;;11.68;5.47;;;-3275.70;80.70;;;;;;5031499;28;20590;-69
2021/12/23 07:16:40;;;;;;;11.82;5.55;;;-3275.70;80.60;;;;;;5032199;28;20118;-68
2021/12/23 07:19:07;;;;;;;11.65;5.18;;;-3275.80;80.70;;;;;;5031667;28;20096;-70
2021/12/23 07:21:33;;;;;;;10.27;5.47;;;-3275.80;80.70;;;;;;5032203;28;20044;-69
2021/12/23 07:24:01;;;;;;;13.10;5.80;;;-3275.80;80.70;;;;;;5031586;28;20049;-68
2021/12/23 07:26:28;;;;;;;11.20;5.60;;;-3275.90;80.70;;;;;;5013813;28;20041;-70
2021/12/23 07:28:56;;;;;;;12.00;5.68;;;-3275.80;80.90;;;;;;5031490;28;20048;-68
2021/12/23 07:31:23;;;;;;;12.95;7.05;;;-3275.80;80.90;;;;;;5028703;28;20037;-70
2021/12/23 07:33:50;;;;;;;13.82;5.47;;;-3275.80;80.90;;;;;;5031616;28;20045;-69
2021/12/23 07:36:19;;;;;;;13.88;5.57;;;-3275.80;80.80;;;;;;5029940;28;20045;-69
2021/12/23 07:38:46;;;;;;;11.95;6.53;;;-3275.80;80.90;;;;;;5031764;28;20045;-69
2021/12/23 07:41:13;;;;;;;10.13;6.47;;;-3275.80;80.90;;;;;;5031932;28;20045;-68
2021/12/23 07:43:55;;;;;;;10.13;5.70;;;-3275.80;80.90;;;;;;5031668;28;20116;-69
2021/12/23 07:46:24;;;;;;;8.68;4.60;;;-3275.80;80.90;;;;;;5031036;28;20395;-68
2021/12/23 07:48:51;;;;;;;13.88;5.78;;;-3275.80;80.90;;;;;;5030733;28;20049;-69
2021/12/23 07:51:18;;;;;;;9.07;5.38;;;-3275.80;81.00;;;;;;5031369;28;20125;-69
2021/12/23 07:53:45;;;;;;;11.85;6.72;;;-3275.80;80.90;;;;;;5031254;28;20051;-67
2021/12/23 07:56:12;;;;;;;9.55;5.57;;;-3275.90;80.90;;;;;;5031006;28;20045;-68
2021/12/23 07:58:39;;;;;;;12.05;5.50;;;-3275.90;81.00;;;;;;5029443;28;20056;-68
2021/12/23 08:01:09;;;;;;;11.53;5.33;;;-3275.90;81.00;;;;;;5026573;28;20053;-69
2021/12/23 08:03:38;;;;;;;13.70;6.57;;;-3275.90;81.00;;;;;;5029033;28;20486;-69
2021/12/23 08:06:05;;;;;;;14.60;6.80;;;-3275.90;81.00;;;;;;5026914;28;20404;-69
2021/12/23 08:08:32;;;;;;;12.07;5.75;;;-3276.00;81.00;;;;;;5029256;28;20214;-70
2021/12/23 08:10:59;;;;;;;10.07;6.05;;;-3276.00;81.00;;;;;;5030006;28;20065;-71
2021/12/23 08:13:26;;;;;;;15.82;8.10;;;-3276.00;81.00;;;;;;5028928;28;20041;-69
2021/12/23 08:15:53;;;;;;;8.95;5.63;;;-3276.00;81.10;;;;;;5027766;28;20045;-71
2021/12/23 08:18:20;;;;;;;16.00;6.05;;;-3276.10;81.10;;;;;;5029544;28;20487;-69
2021/12/23 08:20:48;;;;;;;10.02;5.88;;;-3276.10;81.10;;;;;;5010319;28;20139;-69
2021/12/23 08:23:15;;;;;;;15.82;8.02;;;-3276.10;81.20;;;;;;5029034;28;20041;-71
2021/12/23 08:25:42;;;;;;;11.23;6.05;;;-3276.10;81.30;;;;;;5029155;28;20041;-69
2021/12/23 08:28:10;;;;;;;16.00;6.40;;;-3276.20;81.30;;;;;;5028968;28;20160;-70
2021/12/23 08:30:39;;;;;;;12.98;7.18;;;-3276.20;81.40;;;;;;5027965;28;20124;-68
2021/12/23 08:33:06;;;;;;;13.48;6.35;;;-3276.20;81.40;;;;;;5029021;28;20044;-71
2021/12/23 08:35:33;;;;;;;13.23;6.72;;;-3276.30;81.20;;;;;;5029972;28;20041;-70
2021/12/23 08:38:02;;;;;;;11.73;5.72;;;-3276.30;81.30;;;;;;5029869;28;20041;-68
2021/12/23 08:40:30;;;;;;;12.10;6.30;;;-3276.30;81.40;;;;;;5029046;28;20447;-71
2021/12/23 08:42:58;;;;;;;14.73;6.63;;;-3276.30;81.40;;;;;;5030047;28;20156;-69
2021/12/23 08:45:27;;;;;;;13.40;6.93;;;-3276.30;81.50;;;;;;5030455;28;20053;-69
2021/12/23 08:47:56;;;;;;;16.60;8.40;;;-3276.30;81.40;;;;;;5030236;28;20046;-69
2021/12/23 08:50:25;;;;;;;24.90;12.13;;;-3276.30;81.60;;;;;;5031095;28;20049;-71
2021/12/23 08:52:52;;;;;;;25.13;12.70;;;-3276.40;81.70;;;;;;5030684;28;20041;-69
2021/12/23 08:55:21;;;;;;;24.95;12.75;;;-3276.40;81.80;;;;;;5012391;28;20053;-68
2021/12/23 08:57:49;;;;;;;26.08;13.60;;;-3276.40;81.70;;;;;;5030022;28;20045;-70
2021/12/23 09:00:18;;;;;;;28.65;13.30;;;-3276.50;81.70;;;;;;5028238;28;20045;-73
2021/12/23 09:02:48;;;;;;;23.95;11.63;;;-3276.40;81.70;;;;;;5029487;28;20073;-72
2021/12/23 09:05:16;;;;;;;28.10;11.38;;;-3276.50;81.80;;;;;;5012675;28;20367;-71
2021/12/23 09:07:44;;;;;;;17.45;8.20;;;-3276.50;81.80;;;;;;5029803;28;20065;-71
2021/12/23 09:10:11;;;;;;;21.75;11.48;;;-3276.50;81.80;;;;;;5031137;28;20045;-71
2021/12/23 09:12:40;;;;;;;16.25;8.90;;;-3276.60;82.00;;;;;;5029150;28;20128;-72
2021/12/23 09:15:08;;;;;;;17.27;9.65;;;-3276.60;81.90;;;;;;5030344;28;20046;-72
2021/12/23 09:17:35;;;;;;;15.93;7.78;;;-3276.60;82.00;;;;;;5029560;28;20091;-72
2021/12/23 09:20:03;;;;;;;14.30;7.78;;;-3276.60;81.80;;;;;;5029879;28;20042;-73
2021/12/23 09:22:30;;;;;;;16.10;7.20;;;-3276.60;81.90;;;;;;5028869;28;20064;-72
2021/12/23 09:25:02;;;;;;;16.27;7.38;;;-3276.60;81.90;;;;;;5030166;28;20120;-71
2021/12/23 09:27:51;;;;;;;12.85;7.40;;;-3276.70;81.90;;;;;;5029954;28;20041;-72
2021/12/23 09:33:05;;;;;;;18.13;7.45;;;-3276.70;81.80;;;;;;5028742;28;20051;-72
2021/12/23 09:35:33;;;;;;;15.45;7.13;;;-3276.70;81.70;;;;;;5028699;28;20140;-73
2021/12/23 09:38:01;;;;;;;15.57;7.60;;;0.00;81.60;;;;;;5028159;28;20041;-71
2021/12/23 09:40:32;;;;;;;15.98;8.00;;;0.00;81.60;;;;;;5027872;28;20033;-72
2021/12/23 09:43:02;;;;;;;17.45;8.05;;;0.00;81.60;;;;;;5027946;28;20103;-71
2021/12/23 09:45:34;;;;;;;17.10;7.65;;;0.00;81.60;;;;;;5025824;28;20433;-71
2021/12/23 09:48:02;;;;;;;20.42;8.65;;;0.00;81.50;;;;;;5027838;28;20077;-71
2021/12/23 09:50:33;;;;;;;13.07;7.10;;;0.00;81.50;;;;;;5028647;28;20589;-70
2021/12/23 09:53:04;;;;;;;16.95;8.23;;;0.00;81.40;;;;;;5031726;28;20049;-72
2021/12/23 09:55:33;;;;;;;;;;;0.00;81.40;;;;;;5032436;28;20050;-71
2021/12/23 09:58:01;;;;;;;13.38;5.25;;;0.00;81.40;;;;;;5031422;28;19927;-71
2021/12/23 10:00:33;;;;;;;15.15;7.00;;;0.10;81.50;;;;;;5029807;28;20053;-72
2021/12/23 10:03:01;;;;;;;13.88;8.13;;;0.10;81.60;;;;;;5030954;28;20038;-71
2021/12/23 10:05:30;;;;;;;14.25;7.75;;;0.10;81.60;;;;;;5032236;28;20414;-70
2021/12/23 10:07:57;;;;;;;15.85;7.43;;;0.10;81.60;;;;;;5031608;28;20050;-71
2021/12/23 10:10:29;;;;;;;15.35;8.52;;;0.10;81.60;;;;;;5031784;28;20045;-72
2021/12/23 10:13:17;;;;;;;16.17;8.40;;;0.10;81.50;;;;;;5031557;28;20593;-71
2021/12/23 10:38:26;;;;;;;15.73;8.50;;;0.40;81.70;;;;;;5031349;28;20037;-72
2021/12/23 10:40:56;;;;;;;18.67;7.78;;;0.40;81.80;;;;;;5033128;28;20394;-71
2021/12/23 10:43:26;;;;;;;20.13;7.93;;;0.40;81.80;;;;;;5032919;28;20507;-71
2021/12/23 10:45:57;;;;;;;15.07;6.50;;;0.50;81.60;;;;;;5032513;28;20041;-71
2021/12/23 10:48:27;;;;;;;15.18;7.82;;;0.50;81.50;;;;;;5032431;28;20041;-70
2021/12/23 10:51:01;;;;;;;14.55;8.65;;;0.50;81.40;;;;;;5032292;28;20140;-72
2021/12/23 10:53:43;;;;;;;19.10;8.05;;;0.50;81.50;;;;;;5033029;28;20072;-72
2021/12/23 10:59:15;;;;;;;12.55;6.72;;;0.60;81.50;;;;;;5032139;28;20055;-71
2021/12/23 11:02:10;;;;;;;16.27;6.60;;;0.60;81.30;;;;;;5030430;28;20045;-72
2021/12/23 11:05:03;;;;;;;16.48;8.88;;;0.60;81.40;;;;;;5031685;28;20404;-72
2021/12/23 11:07:48;;;;;;;20.40;8.38;;;0.60;81.40;;;;;;5031579;28;20045;-71
2021/12/23 11:10:22;;;;;;;17.83;7.85;;;0.60;81.50;;;;;;5032045;28;20047;-71
2021/12/23 11:38:28;;;;;;;16.75;7.82;;;0.80;81.40;;;;;;4967910;28;20054;-71
2021/12/23 11:40:59;;;;;;;15.73;7.43;;;0.90;81.50;;;;;;5020007;28;20061;-73
2021/12/23 11:43:44;;;;;;;13.95;7.88;;;0.90;81.40;;;;;;5029464;28;20061;-72
2021/12/23 11:46:12;;;;;;;15.88;8.52;;;0.90;81.40;;;;;;5029271;28;20048;-72
2021/12/23 11:48:42;;;;;;;14.55;8.02;;;1.00;81.30;;;;;;5029469;28;20051;-72
2021/12/23 11:51:15;;;;;;;15.93;8.30;;;1.00;81.40;;;;;;5029910;28;20041;-71
2021/12/23 11:53:48;;;;;;;16.48;9.00;;;1.00;81.20;;;;;;5031207;28;20049;-71
2021/12/23 11:56:18;;;;;;;22.92;10.25;;;1.00;81.30;;;;;;5030463;28;20072;-71
2021/12/23 11:58:47;;;;;;;14.98;8.30;;;1.00;81.30;;;;;;5031755;28;20065;-71
2021/12/23 12:01:21;;;;;;;17.83;9.15;;;1.10;81.40;;;;;;5029308;28;20068;-73
2021/12/23 12:04:00;;;;;;;21.75;9.10;;;1.10;81.30;;;;;;5031797;28;20045;-72
2021/12/23 12:06:32;;;;;;;18.55;9.10;;;1.20;81.30;;;;;;5031843;28;20453;-72
2021/12/23 12:09:13;;;;;;;16.30;8.73;;;1.20;81.40;;;;;;5031778;28;20053;-73
2021/12/23 12:11:41;;;;;;;21.30;9.30;;;1.20;81.40;;;;;;5031436;28;20476;-72
2021/12/23 12:14:33;;;;;;;19.08;8.88;;;1.20;81.30;;;;;;5029609;28;20419;-72
2021/12/23 12:17:35;;;;;;;15.77;9.00;;;1.20;81.40;;;;;;5031610;28;20045;-73
2021/12/23 12:20:11;;;;;;;21.27;10.13;;;1.20;81.40;;;;;;5031923;28;20049;-72
2021/12/23 12:23:01;;;;;;;18.40;7.97;;;1.20;81.40;;;;;;5030547;28;20084;-73
2021/12/23 12:26:10;;;;;;;23.40;9.33;;;1.20;81.50;;;;;;5030685;28;20447;-72
2021/12/23 12:28:44;;;;;;;13.98;7.38;;;1.30;81.50;;;;;;5000887;28;20554;-73
2021/12/23 12:31:19;;;;;;;23.45;9.85;;;1.30;81.40;;;;;;5031085;28;20049;-73
2021/12/23 12:33:55;;;;;;;21.00;8.77;;;1.30;81.50;;;;;;5030712;28;20137;-72
2021/12/23 12:36:24;;;;;;;17.80;9.55;;;1.30;81.50;;;;;;5030743;28;20037;-73
2021/12/23 12:38:55;;;;;;;19.70;10.60;;;1.30;81.50;;;;;;5030506;28;20037;-73
2021/12/23 12:41:31;;;;;;;22.27;9.73;;;1.30;81.50;;;;;;5030007;28;20048;-73
2021/12/23 12:44:06;;;;;;;18.83;10.05;;;1.40;81.50;;;;;;5031150;28;20156;-73
2021/12/23 12:47:10;;;;;;;17.30;10.00;;;1.40;81.60;;;;;;5030296;28;20052;-72
2021/12/23 12:49:40;;;;;;;17.77;9.05;;;1.40;81.70;;;;;;5029377;28;20448;-74
2021/12/23 12:52:19;;;;;;;22.30;10.85;;;1.40;81.90;;;;;;5031026;28;20569;-73
2021/12/23 12:54:53;;;;;;;21.65;10.45;;;1.50;81.80;;;;;;5029261;28;20064;-73
2021/12/23 12:57:25;;;;;;;23.85;10.52;;;1.50;82.10;;;;;;5027729;28;20568;-73
2021/12/23 12:59:54;;;;;;;23.10;11.02;;;1.50;82.10;;;;;;5029258;28;20048;-72
2021/12/23 13:02:28;;;;;;;19.35;11.20;;;1.50;82.10;;;;;;5026393;28;20077;-72
2021/12/23 13:04:59;;;;;;;22.42;10.15;;;1.50;82.10;;;;;;5027878;28;20068;-73
2021/12/23 13:07:49;;;;;;;20.15;9.38;;;1.50;82.10;;;;;;5028126;28;20496;-74
2021/12/23 13:10:31;;;;;;;26.15;10.60;;;1.60;82.10;;;;;;5027482;28;20053;-73
2021/12/23 13:13:42;;;;;;;20.33;8.95;;;1.60;82.10;;;;;;4987576;28;20212;-73
2021/12/23 13:16:34;;;;;;;20.73;10.40;;;1.50;82.20;;;;;;4985932;28;20049;-74
2021/12/23 13:19:19;;;;;;;18.02;9.02;;;1.60;82.10;;;;;;5014829;28;20060;-74
2021/12/23 13:21:49;;;;;;;16.30;8.32;;;1.60;82.20;;;;;;5028781;28;20095;-73
2021/12/23 13:24:18;;;;;;;24.35;10.50;;;1.60;82.10;;;;;;5009754;28;20152;-74
2021/12/23 13:26:47;;;;;;;24.20;9.50;;;1.60;82.10;;;;;;5027337;28;20099;-73
2021/12/23 13:29:15;;;;;;;19.63;10.77;;;1.60;82.10;;;;;;5028129;28;20049;-74
2021/12/23 13:31:43;;;;;;;21.67;10.43;;;1.60;82.10;;;;;;5028463;28;20042;-73
2021/12/23 13:34:12;;;;;;;19.35;8.73;;;1.70;82.20;;;;;;5028519;28;20069;-74